createdAt,value
2018-07-17T00:00:57.784Z,5.27
2018-07-17T00:06:00.852Z,5.40
2018-07-17T00:11:03.987Z,5.57
2018-07-17T00:16:07.069Z,6.10
2018-07-17T00:21:10.580Z,5.20
2018-07-17T00:26:13.641Z,6.13
2018-07-17T00:31:16.697Z,6.00
2018-07-17T00:36:19.741Z,5.80
2018-07-17T00:41:22.797Z,6.10
2018-07-17T00:46:25.857Z,6.30
2018-07-17T00:51:28.910Z,6.27
2018-07-17T00:56:32.025Z,6.40
2018-07-17T01:01:40.601Z,6.37
2018-07-17T01:06:49.101Z,6.97
2018-07-17T01:11:57.647Z,7.03
2018-07-17T01:17:00.700Z,7.33
2018-07-17T01:22:03.754Z,6.63
2018-07-17T01:27:06.801Z,7.83
2018-07-17T01:32:09.860Z,7.37
2018-07-17T01:37:12.928Z,7.23
2018-07-17T01:42:15.998Z,7.50
2018-07-17T01:47:19.068Z,7.30
2018-07-17T01:52:22.130Z,7.70
2018-07-17T01:57:25.204Z,7.73
2018-07-17T02:02:28.302Z,7.13
2018-07-17T02:07:31.369Z,7.87
2018-07-17T02:12:34.437Z,7.63
2018-07-17T02:17:37.492Z,7.77
2018-07-17T02:22:40.561Z,6.70
2018-07-17T02:27:43.644Z,6.83
2018-07-17T02:32:46.694Z,7.23
2018-07-17T02:37:49.786Z,7.57
2018-07-17T02:42:52.865Z,7.23
2018-07-17T02:47:55.945Z,7.00
2018-07-17T02:52:59.020Z,7.93
2018-07-17T02:58:02.101Z,7.90
2018-07-17T03:03:05.263Z,8.13
2018-07-17T03:08:08.341Z,8.80
2018-07-17T03:13:11.398Z,8.30
2018-07-17T03:18:14.465Z,8.33
2018-07-17T03:23:17.537Z,9.07
2018-07-17T03:28:20.585Z,8.77
2018-07-17T03:33:23.662Z,9.10
2018-07-17T03:38:26.716Z,9.10
2018-07-17T03:43:29.773Z,8.07
2018-07-17T03:48:32.845Z,8.93
2018-07-17T03:53:35.913Z,8.10
2018-07-17T03:58:38.993Z,7.97
2018-07-17T04:03:42.086Z,7.80
2018-07-17T04:08:45.199Z,9.10
2018-07-17T04:13:48.212Z,9.20
2018-07-17T04:18:51.281Z,8.63
2018-07-17T04:23:54.341Z,7.93
2018-07-17T04:28:57.404Z,8.00
2018-07-17T04:34:00.482Z,7.50
2018-07-17T04:39:03.996Z,7.93
2018-07-17T04:44:07.251Z,8.80
2018-07-17T04:49:10.335Z,8.27
2018-07-17T04:54:13.409Z,8.07
2018-07-17T04:59:16.489Z,8.07
2018-07-17T05:04:19.557Z,8.00
2018-07-17T05:09:23.039Z,8.27
2018-07-17T05:14:26.238Z,8.20
2018-07-17T05:19:29.288Z,7.30
2018-07-17T05:24:32.389Z,6.87
2018-07-17T05:29:35.441Z,7.27
2018-07-17T05:34:38.489Z,6.80
2018-07-17T05:39:41.557Z,6.83
2018-07-17T05:44:44.598Z,7.03
2018-07-17T05:49:47.641Z,6.20
2018-07-17T05:54:50.681Z,7.10
2018-07-17T05:59:53.738Z,6.33
2018-07-17T06:04:56.776Z,6.97
2018-07-17T06:09:59.841Z,7.73
2018-07-17T06:15:02.897Z,6.70
2018-07-17T06:20:07.239Z,6.50
2018-07-17T06:25:10.610Z,6.00
2018-07-17T06:30:13.677Z,5.37
2018-07-17T06:35:16.740Z,5.87
2018-07-17T06:40:19.772Z,6.30
2018-07-17T06:45:22.857Z,5.30
2018-07-17T06:50:25.930Z,4.90
2018-07-17T06:55:28.948Z,6.07
2018-07-17T07:00:32.011Z,5.50
2018-07-17T07:05:35.161Z,5.87
2018-07-17T07:10:38.212Z,5.47
2018-07-17T07:15:41.272Z,6.00
2018-07-17T07:20:44.328Z,6.00
2018-07-17T07:25:47.381Z,5.40
2018-07-17T07:30:50.436Z,6.07
2018-07-17T07:35:53.480Z,5.43
2018-07-17T07:40:56.540Z,5.83
2018-07-17T07:45:59.596Z,5.20
2018-07-17T07:51:02.653Z,5.20
2018-07-17T07:56:05.949Z,4.83
2018-07-17T08:01:08.992Z,5.07
2018-07-17T08:06:12.053Z,4.97
2018-07-17T08:11:15.125Z,4.53
2018-07-17T08:16:18.261Z,3.77
2018-07-17T08:21:21.317Z,4.60
2018-07-17T08:26:24.368Z,3.77
2018-07-17T08:31:27.424Z,3.83
2018-07-17T08:36:30.485Z,3.97
2018-07-17T08:41:33.536Z,3.47
2018-07-17T08:46:36.600Z,3.37
2018-07-17T08:51:39.669Z,3.53
2018-07-17T08:56:42.716Z,3.60
2018-07-17T09:01:45.787Z,3.20
2018-07-17T09:06:48.864Z,2.90
2018-07-17T09:11:51.910Z,3.03
2018-07-17T09:16:54.961Z,2.77
2018-07-17T09:21:58.013Z,2.57
2018-07-17T09:27:01.065Z,2.90
2018-07-17T09:32:04.114Z,3.00
2018-07-17T09:37:07.175Z,2.70
2018-07-17T09:42:10.215Z,2.63
2018-07-17T09:47:13.274Z,2.70
2018-07-17T09:52:16.337Z,9.33
2018-07-17T09:57:19.393Z,2.90
2018-07-17T10:02:28.300Z,2.57
2018-07-17T10:07:31.345Z,2.47
2018-07-17T10:12:34.387Z,2.90
2018-07-17T10:17:37.426Z,2.77
2018-07-17T10:22:40.473Z,2.93
2018-07-17T10:27:43.521Z,3.00
2018-07-17T10:32:46.621Z,2.50
2018-07-17T10:37:49.703Z,3.13
2018-07-17T10:42:52.752Z,2.80
2018-07-17T10:47:55.922Z,2.83
2018-07-17T10:52:58.972Z,2.60
2018-07-17T10:58:02.044Z,2.70
2018-07-17T11:03:05.093Z,2.93
2018-07-17T11:08:08.144Z,2.80
2018-07-17T11:13:11.200Z,2.50
2018-07-17T11:18:14.236Z,2.83
2018-07-17T11:23:17.296Z,3.07
2018-07-17T11:28:20.328Z,3.33
2018-07-17T11:33:23.384Z,3.47
2018-07-17T11:38:26.480Z,3.33
2018-07-17T11:43:29.516Z,2.90
2018-07-17T11:48:32.567Z,2.83
2018-07-17T11:53:35.662Z,3.00
2018-07-17T11:58:38.700Z,3.10
2018-07-17T12:03:41.756Z,3.17
2018-07-17T12:08:45.622Z,3.30
2018-07-17T12:13:48.771Z,3.37
2018-07-17T12:18:51.831Z,3.50
2018-07-17T12:23:54.877Z,3.50
2018-07-17T12:28:57.925Z,3.20
2018-07-17T12:34:00.985Z,3.47
2018-07-17T12:39:05.114Z,3.27
2018-07-17T12:44:08.273Z,3.43
2018-07-17T12:49:11.324Z,3.23
2018-07-17T12:54:14.364Z,3.20
2018-07-17T12:59:17.422Z,3.43
2018-07-17T13:04:20.465Z,3.50
2018-07-17T13:09:23.656Z,3.73
2018-07-17T13:14:26.549Z,3.63
2018-07-17T13:19:29.604Z,3.90
2018-07-17T13:24:32.658Z,3.80
2018-07-17T13:29:35.704Z,4.23
2018-07-17T13:34:38.741Z,4.17
2018-07-17T13:39:41.788Z,4.47
2018-07-17T13:44:44.917Z,4.13
2018-07-17T13:49:47.936Z,3.70
2018-07-17T13:54:50.996Z,4.00
2018-07-17T13:59:54.118Z,4.43
2018-07-17T14:04:57.144Z,4.50
2018-07-17T14:10:00.192Z,3.90
2018-07-17T14:15:03.279Z,4.63
2018-07-17T14:20:06.335Z,4.23
2018-07-17T14:25:09.365Z,3.47
2018-07-17T14:30:12.484Z,3.40
2018-07-17T14:35:15.489Z,2.90
2018-07-17T14:40:18.561Z,3.10
2018-07-17T14:45:21.612Z,2.97
2018-07-17T14:50:24.664Z,3.30
2018-07-17T14:55:27.713Z,4.90
2018-07-17T15:00:30.747Z,4.90
2018-07-17T15:05:33.802Z,3.73
2018-07-17T15:10:36.853Z,4.17
2018-07-17T15:15:40.029Z,3.73
2018-07-17T15:20:42.932Z,4.87
2018-07-17T15:25:45.982Z,3.80
2018-07-17T15:30:49.025Z,3.30
2018-07-17T15:35:52.081Z,3.27
2018-07-17T15:40:55.133Z,3.73
2018-07-17T15:45:58.210Z,3.90
2018-07-17T15:51:01.292Z,3.30
2018-07-17T15:56:04.351Z,3.80
2018-07-17T16:01:07.409Z,4.30
2018-07-17T16:06:10.498Z,3.60
2018-07-17T16:11:13.501Z,4.07
2018-07-17T16:16:16.563Z,3.53
2018-07-17T16:21:19.629Z,5.17
2018-07-17T16:26:22.680Z,4.03
2018-07-17T16:31:25.736Z,3.47
2018-07-17T16:36:28.788Z,3.00
2018-07-17T16:41:31.848Z,3.20
2018-07-17T16:46:34.897Z,2.57
2018-07-17T16:51:37.976Z,2.47
2018-07-17T16:56:41.038Z,3.10
2018-07-17T17:01:44.088Z,3.27
2018-07-17T17:06:47.326Z,2.40
2018-07-17T17:11:50.376Z,2.07
2018-07-17T17:16:53.433Z,2.30
2018-07-17T17:21:56.497Z,1.87
2018-07-17T17:26:59.557Z,2.33
2018-07-17T17:32:02.622Z,2.27
2018-07-17T17:37:05.680Z,2.53
2018-07-17T17:42:08.727Z,2.27
2018-07-17T17:47:11.764Z,2.70
2018-07-17T17:52:14.829Z,2.93
2018-07-17T17:57:17.865Z,2.73
2018-07-17T18:02:20.914Z,3.10
2018-07-17T18:07:23.973Z,2.67
2018-07-17T18:12:27.029Z,2.87
2018-07-17T18:17:30.099Z,2.63
2018-07-17T18:22:33.149Z,3.30
2018-07-17T18:27:36.205Z,3.20
2018-07-17T18:32:39.277Z,3.53
2018-07-17T18:37:42.320Z,2.90
2018-07-17T18:42:45.364Z,3.50
2018-07-17T18:47:48.460Z,2.93
2018-07-17T18:52:51.500Z,3.07
2018-07-17T18:57:54.573Z,2.70
2018-07-17T19:02:57.629Z,2.93
2018-07-17T19:08:00.681Z,2.80
2018-07-17T19:13:03.733Z,3.17
2018-07-17T19:18:06.772Z,3.43
2018-07-17T19:23:09.833Z,2.90
2018-07-17T19:28:12.900Z,3.30
2018-07-17T19:33:15.959Z,2.90
2018-07-17T19:38:19.025Z,3.07
2018-07-17T19:43:22.077Z,3.10
2018-07-17T19:48:25.133Z,3.13
2018-07-17T19:53:28.172Z,3.00
2018-07-17T19:58:31.209Z,3.20
2018-07-17T20:03:34.268Z,3.13
2018-07-17T20:08:37.404Z,3.30
2018-07-17T20:13:40.409Z,3.23
2018-07-17T20:18:43.464Z,3.40
2018-07-17T20:23:46.501Z,3.40
2018-07-17T20:28:49.533Z,2.93
2018-07-17T20:33:52.653Z,3.73
2018-07-17T20:38:55.708Z,3.63
2018-07-17T20:43:58.764Z,3.87
2018-07-17T20:49:01.820Z,3.80
2018-07-17T20:54:04.877Z,4.23
2018-07-17T20:59:07.920Z,4.47
2018-07-17T21:04:10.984Z,4.10
2018-07-17T21:09:14.056Z,4.97
2018-07-17T21:14:17.084Z,4.60
2018-07-17T21:19:20.136Z,4.40
2018-07-17T21:24:23.193Z,4.37
2018-07-17T21:29:26.237Z,4.57
2018-07-17T21:34:29.276Z,5.00
2018-07-17T21:39:32.332Z,4.77
2018-07-17T21:44:35.364Z,4.60
2018-07-17T21:49:38.472Z,5.93
2018-07-17T21:54:41.513Z,6.17
2018-07-17T21:59:44.645Z,5.40
2018-07-17T22:04:47.705Z,5.80
2018-07-17T22:09:50.772Z,5.87
2018-07-17T22:14:53.812Z,5.80
2018-07-17T22:19:56.876Z,4.77
2018-07-17T22:24:59.938Z,5.27
2018-07-17T22:30:03.006Z,4.53
2018-07-17T22:35:06.136Z,4.60
2018-07-17T22:40:09.189Z,4.70
2018-07-17T22:45:12.237Z,4.50
2018-07-17T22:50:15.268Z,4.73
2018-07-17T22:55:18.329Z,5.03
2018-07-17T23:00:21.368Z,5.20
2018-07-17T23:05:24.429Z,5.10
2018-07-17T23:10:27.481Z,4.77
2018-07-17T23:15:30.546Z,5.27
2018-07-17T23:20:33.601Z,5.03
2018-07-17T23:25:36.653Z,4.93
2018-07-17T23:30:39.700Z,4.93
2018-07-17T23:35:42.743Z,4.67
2018-07-17T23:40:45.781Z,5.30
2018-07-17T23:45:48.820Z,5.70
2018-07-17T23:50:51.868Z,5.47
2018-07-17T23:55:54.901Z,5.20
